createdAt,value
2022-09-26T00:00:21.318Z,17.98
2022-09-26T00:01:28.784Z,20.80
2022-09-26T00:02:30.730Z,18.38
2022-09-26T00:03:33.097Z,18.75
2022-09-26T00:04:34.749Z,17.00
2022-09-26T00:05:40.214Z,18.67
2022-09-26T00:06:43.052Z,17.58
2022-09-26T00:07:44.589Z,17.60
2022-09-26T00:08:47.576Z,18.08
2022-09-26T00:09:49.189Z,16.40
2022-09-26T00:10:58.134Z,16.50
2022-09-26T00:11:59.812Z,18.95
2022-09-26T00:13:01.452Z,18.15
2022-09-26T00:14:10.609Z,15.68
2022-09-26T00:15:12.313Z,20.77
2022-09-26T00:16:15.376Z,16.92
2022-09-26T00:17:17.165Z,19.58
2022-09-26T00:18:18.913Z,19.45
2022-09-26T00:19:21.722Z,20.20
2022-09-26T00:20:23.258Z,20.30
2022-09-26T00:21:26.637Z,18.38
2022-09-26T00:22:30.358Z,21.00
2022-09-26T00:23:32.523Z,20.95
2022-09-26T00:24:34.074Z,16.45
2022-09-26T00:25:35.678Z,18.05
2022-09-26T00:26:37.784Z,17.38
2022-09-26T00:27:48.305Z,17.60
2022-09-26T00:28:50.620Z,19.13
2022-09-26T00:29:52.276Z,17.00
2022-09-26T00:30:54.589Z,17.75
2022-09-26T00:31:57.313Z,18.55
2022-09-26T00:32:58.820Z,15.55
2022-09-26T00:34:00.815Z,19.85
2022-09-26T00:35:02.416Z,16.58
2022-09-26T00:36:05.564Z,18.23
2022-09-26T00:37:14.135Z,18.45
2022-09-26T00:38:16.907Z,17.55
2022-09-26T00:39:18.461Z,18.60
2022-09-26T00:40:29.150Z,21.67
2022-09-26T00:41:30.943Z,19.60
2022-09-26T00:42:32.467Z,18.65
2022-09-26T00:44:03.027Z,17.70
2022-09-26T00:45:05.134Z,20.70
2022-09-26T00:46:35.895Z,20.38
2022-09-26T00:47:52.135Z,21.55
2022-09-26T00:49:31.353Z,18.75
2022-09-26T00:50:37.718Z,20.88
2022-09-26T00:51:42.538Z,21.33
2022-09-26T00:52:53.864Z,19.30
2022-09-26T00:53:58.704Z,21.13
2022-09-26T00:55:09.150Z,21.55
2022-09-26T00:56:17.354Z,19.98
2022-09-26T00:57:29.489Z,21.15
2022-09-26T00:58:41.122Z,17.98
2022-09-26T00:59:48.470Z,19.95
2022-09-26T01:00:59.170Z,18.70
2022-09-26T01:02:02.253Z,17.05
2022-09-26T01:03:04.041Z,19.83
2022-09-26T01:04:06.372Z,20.83
2022-09-26T01:05:12.755Z,19.48
2022-09-26T01:06:17.999Z,18.65
2022-09-26T01:07:26.539Z,21.45
2022-09-26T01:08:36.702Z,21.77
2022-09-26T01:09:39.356Z,19.25
2022-09-26T01:10:41.115Z,19.67
2022-09-26T01:11:44.639Z,18.27
2022-09-26T01:12:46.839Z,19.60
2022-09-26T01:13:50.996Z,20.48
2022-09-26T01:14:54.682Z,21.33
2022-09-26T01:15:56.370Z,20.77
2022-09-26T01:16:57.921Z,21.60
2022-09-26T01:18:00.475Z,22.10
2022-09-26T01:19:07.385Z,19.95
2022-09-26T01:20:20.998Z,18.27
2022-09-26T01:21:34.810Z,19.40
2022-09-26T01:22:55.041Z,17.20
2022-09-26T01:24:20.368Z,16.48
2022-09-26T01:25:34.170Z,17.75
2022-09-26T01:27:00.605Z,17.70
2022-09-26T01:28:30.373Z,16.50
2022-09-26T01:29:42.452Z,17.90
2022-09-26T01:31:12.520Z,18.35
2022-09-26T01:32:51.209Z,18.02
2022-09-26T01:34:04.941Z,17.52
2022-09-26T01:35:19.346Z,17.08
2022-09-26T01:36:33.524Z,15.90
2022-09-26T01:38:03.480Z,17.63
2022-09-26T01:39:13.951Z,16.50
2022-09-26T01:40:26.386Z,17.73
2022-09-26T01:41:34.029Z,14.93
2022-09-26T01:42:38.426Z,17.15
2022-09-26T01:44:02.100Z,17.85
2022-09-26T01:45:22.751Z,16.70
2022-09-26T01:46:29.254Z,16.77
2022-09-26T01:47:41.554Z,17.27
2022-09-26T01:48:48.733Z,15.38
2022-09-26T01:50:17.904Z,14.97
2022-09-26T01:51:58.781Z,16.85
2022-09-26T01:53:12.699Z,14.93
2022-09-26T01:54:21.630Z,15.57
2022-09-26T01:55:28.491Z,15.18
2022-09-26T01:56:37.763Z,16.40
2022-09-26T01:57:48.468Z,16.88
2022-09-26T01:58:57.220Z,17.35
2022-09-26T02:00:05.896Z,16.25
2022-09-26T02:01:11.973Z,14.68
2022-09-26T02:02:28.334Z,16.42
2022-09-26T02:03:38.304Z,14.57
2022-09-26T02:04:48.512Z,14.65
2022-09-26T02:06:00.437Z,15.52
2022-09-26T02:07:16.841Z,13.70
2022-09-26T02:08:28.073Z,14.18
2022-09-26T02:09:48.800Z,14.25
2022-09-26T02:11:21.775Z,13.75
2022-09-26T02:12:32.734Z,13.63
2022-09-26T02:13:43.634Z,13.15
2022-09-26T02:14:48.083Z,12.77
2022-09-26T02:15:56.190Z,12.70
2022-09-26T02:17:07.777Z,14.27
2022-09-26T02:18:20.962Z,12.55
2022-09-26T02:19:29.799Z,13.32
2022-09-26T02:20:39.265Z,11.98
2022-09-26T02:21:42.424Z,12.20
2022-09-26T02:22:44.531Z,10.38
2022-09-26T02:23:49.952Z,12.68
2022-09-26T02:24:55.516Z,12.35
2022-09-26T02:26:00.023Z,10.82
2022-09-26T02:27:02.609Z,9.70
2022-09-26T02:28:04.888Z,10.48
2022-09-26T02:29:07.958Z,10.73
2022-09-26T02:30:10.023Z,10.25
2022-09-26T02:31:20.922Z,8.63
2022-09-26T02:32:30.205Z,10.95
2022-09-26T02:33:36.317Z,9.43
2022-09-26T02:34:40.237Z,10.05
2022-09-26T02:35:54.917Z,10.35
2022-09-26T02:36:57.479Z,10.15
2022-09-26T02:38:00.393Z,8.32
2022-09-26T02:39:02.235Z,8.45
2022-09-26T02:40:04.069Z,9.35
2022-09-26T02:41:32.597Z,9.05
2022-09-26T02:42:43.519Z,7.53
2022-09-26T02:44:05.337Z,8.65
2022-09-26T02:45:33.827Z,8.23
2022-09-26T02:46:41.464Z,8.23
2022-09-26T02:48:19.440Z,8.05
2022-09-26T02:49:29.715Z,8.30
2022-09-26T02:51:01.840Z,8.27
2022-09-26T02:52:49.973Z,8.88
2022-09-26T02:54:04.945Z,8.80
2022-09-26T02:55:22.676Z,8.32
2022-09-26T02:56:40.915Z,8.38
2022-09-26T02:58:11.181Z,7.05
2022-09-26T02:59:22.500Z,7.47
2022-09-26T03:00:31.714Z,7.20
2022-09-26T03:02:02.945Z,7.20
2022-09-26T03:03:18.047Z,8.02
2022-09-26T03:04:39.482Z,7.57
2022-09-26T03:05:48.888Z,8.27
2022-09-26T03:06:55.593Z,7.60
2022-09-26T03:08:09.569Z,7.25
2022-09-26T03:09:13.128Z,8.90
2022-09-26T03:10:16.637Z,8.20
2022-09-26T03:11:25.857Z,8.02
2022-09-26T03:12:30.769Z,9.30
2022-09-26T03:13:39.011Z,8.23
2022-09-26T03:14:45.594Z,8.40
2022-09-26T03:15:53.936Z,8.40
2022-09-26T03:16:56.265Z,8.30
2022-09-26T03:17:59.278Z,8.23
2022-09-26T03:19:10.843Z,8.40
2022-09-26T03:20:18.618Z,8.90
2022-09-26T03:21:21.534Z,8.93
2022-09-26T03:22:23.155Z,9.10
2022-09-26T03:23:26.405Z,8.55
2022-09-26T03:24:28.733Z,9.20
2022-09-26T03:25:31.084Z,9.20
2022-09-26T03:26:34.132Z,10.35
2022-09-26T03:27:39.122Z,9.88
2022-09-26T03:28:53.503Z,9.05
2022-09-26T03:29:57.632Z,9.57
2022-09-26T03:30:59.782Z,9.55
2022-09-26T03:32:05.255Z,8.68
2022-09-26T03:33:09.750Z,8.80
2022-09-26T03:34:11.798Z,8.10
2022-09-26T03:35:16.352Z,9.55
2022-09-26T03:36:24.059Z,9.13
2022-09-26T03:37:25.814Z,9.68
2022-09-26T03:38:27.830Z,9.45
2022-09-26T03:39:29.521Z,9.50
2022-09-26T03:40:33.508Z,8.20
2022-09-26T03:41:35.363Z,8.90
2022-09-26T03:42:40.150Z,8.93
2022-09-26T03:43:43.730Z,8.40
2022-09-26T03:44:45.407Z,10.20
2022-09-26T03:45:47.229Z,10.63
2022-09-26T03:46:49.044Z,10.60
2022-09-26T03:47:57.193Z,11.88
2022-09-26T03:48:59.069Z,8.52
2022-09-26T03:50:05.567Z,8.65
2022-09-26T03:51:10.284Z,9.88
2022-09-26T03:52:16.367Z,9.30
2022-09-26T03:53:18.851Z,8.25
2022-09-26T03:54:20.504Z,10.00
2022-09-26T03:55:22.412Z,8.68
2022-09-26T03:56:27.192Z,10.13
2022-09-26T03:57:28.742Z,8.15
2022-09-26T03:58:30.365Z,8.90
2022-09-26T03:59:37.734Z,8.10
2022-09-26T04:00:39.969Z,8.68
2022-09-26T04:01:41.945Z,8.90
2022-09-26T04:02:44.527Z,8.57
2022-09-26T04:03:51.070Z,8.07
2022-09-26T04:04:53.932Z,8.20
2022-09-26T04:05:56.465Z,8.45
2022-09-26T04:06:58.975Z,8.45
2022-09-26T04:08:04.021Z,8.68
2022-09-26T04:09:12.058Z,8.65
2022-09-26T04:10:17.591Z,9.10
2022-09-26T04:11:21.955Z,8.10
2022-09-26T04:12:23.530Z,8.48
2022-09-26T04:13:50.202Z,7.93
2022-09-26T04:14:48.312Z,7.45
2022-09-26T04:15:56.055Z,8.27
2022-09-26T04:16:58.523Z,8.75
2022-09-26T04:18:06.127Z,9.00
2022-09-26T04:19:07.696Z,8.70
2022-09-26T04:20:10.056Z,7.53
2022-09-26T04:21:16.028Z,8.57
2022-09-26T04:22:23.324Z,8.52
2022-09-26T04:23:29.196Z,7.63
2022-09-26T04:24:34.107Z,8.48
2022-09-26T04:25:37.947Z,7.90
2022-09-26T04:26:41.572Z,7.50
2022-09-26T04:27:48.172Z,7.75
2022-09-26T04:28:54.865Z,7.90
2022-09-26T04:29:57.304Z,7.95
2022-09-26T04:31:00.481Z,7.90
2022-09-26T04:32:02.692Z,6.88
2022-09-26T04:33:07.931Z,7.75
2022-09-26T04:34:16.799Z,8.98
2022-09-26T04:35:19.031Z,8.32
2022-09-26T04:36:25.794Z,8.70
2022-09-26T04:37:28.689Z,9.82
2022-09-26T04:38:34.148Z,8.43
2022-09-26T04:39:36.189Z,9.15
2022-09-26T04:40:43.938Z,8.73
2022-09-26T04:41:48.451Z,7.88
2022-09-26T04:42:50.074Z,8.27
2022-09-26T04:43:54.071Z,9.48
2022-09-26T04:44:56.501Z,8.60
2022-09-26T04:45:58.226Z,9.45
2022-09-26T04:47:05.105Z,8.77
2022-09-26T04:48:07.892Z,9.63
2022-09-26T04:49:09.730Z,8.80
2022-09-26T04:50:11.663Z,9.20
2022-09-26T04:51:15.323Z,9.65
2022-09-26T04:52:16.937Z,9.70
2022-09-26T04:53:24.327Z,11.77
2022-09-26T04:54:28.745Z,8.50
2022-09-26T04:55:30.665Z,10.32
2022-09-26T04:56:32.553Z,10.02
2022-09-26T04:57:34.760Z,9.77
2022-09-26T04:58:42.084Z,10.10
2022-09-26T04:59:43.703Z,9.85
2022-09-26T05:00:52.596Z,9.50
2022-09-26T05:02:03.076Z,8.85
2022-09-26T05:03:05.098Z,9.15
2022-09-26T05:04:10.121Z,9.18
2022-09-26T05:05:14.350Z,9.27
2022-09-26T05:06:22.510Z,9.18
2022-09-26T05:07:29.472Z,9.90
2022-09-26T05:08:38.657Z,9.57
2022-09-26T05:09:45.726Z,10.30
2022-09-26T05:10:56.940Z,9.05
2022-09-26T05:11:58.705Z,8.10
2022-09-26T05:13:03.603Z,9.90
2022-09-26T05:14:05.342Z,8.52
2022-09-26T05:15:12.517Z,8.63
2022-09-26T05:16:17.274Z,8.52
2022-09-26T05:17:31.184Z,8.55
2022-09-26T05:18:42.333Z,9.20
2022-09-26T05:19:47.388Z,8.27
2022-09-26T05:20:50.930Z,9.90
2022-09-26T05:21:58.260Z,8.73
2022-09-26T05:23:07.001Z,9.05
2022-09-26T05:24:27.669Z,9.05
2022-09-26T05:25:56.354Z,8.35
2022-09-26T05:27:02.053Z,9.50
2022-09-26T05:28:04.681Z,8.52
2022-09-26T05:29:09.048Z,8.95
2022-09-26T05:30:13.205Z,7.72
2022-09-26T05:31:16.886Z,10.10
2022-09-26T05:32:21.316Z,8.88
2022-09-26T05:33:23.120Z,11.38
2022-09-26T05:34:40.226Z,10.88
2022-09-26T05:35:45.019Z,10.48
2022-09-26T05:36:47.793Z,10.50
2022-09-26T05:37:59.649Z,11.35
2022-09-26T05:39:02.390Z,9.77
2022-09-26T05:40:28.585Z,9.70
2022-09-26T05:41:40.595Z,10.25
2022-09-26T05:42:45.314Z,10.35
2022-09-26T05:43:52.144Z,10.07
2022-09-26T05:44:54.005Z,10.57
2022-09-26T05:46:00.915Z,10.23
2022-09-26T05:47:05.838Z,10.90
2022-09-26T05:48:07.636Z,10.07
2022-09-26T05:49:11.207Z,9.45
2022-09-26T05:50:12.995Z,8.98
2022-09-26T05:51:16.900Z,9.55
2022-09-26T05:52:18.709Z,9.65
2022-09-26T05:53:20.571Z,8.45
2022-09-26T05:54:25.152Z,10.30
2022-09-26T05:55:31.348Z,9.00
2022-09-26T05:56:33.686Z,9.43
2022-09-26T05:57:35.443Z,9.55
2022-09-26T05:58:48.178Z,8.70
2022-09-26T05:59:51.391Z,10.02
2022-09-26T06:00:54.156Z,9.93
2022-09-26T06:01:58.328Z,9.00
2022-09-26T06:03:06.125Z,8.90
2022-09-26T06:04:13.602Z,8.57
2022-09-26T06:05:15.666Z,8.68
2022-09-26T06:06:19.564Z,8.32
2022-09-26T06:07:24.169Z,9.43
2022-09-26T06:08:26.066Z,9.30
2022-09-26T06:09:28.010Z,8.75
2022-09-26T06:10:30.523Z,8.20
2022-09-26T06:11:32.257Z,8.43
2022-09-26T06:12:35.172Z,8.88
2022-09-26T06:13:41.404Z,8.45
2022-09-26T06:14:46.779Z,8.05
2022-09-26T06:15:52.091Z,9.07
2022-09-26T06:16:56.684Z,7.75
2022-09-26T06:18:09.693Z,7.90
2022-09-26T06:19:17.495Z,8.30
2022-09-26T06:20:29.441Z,8.05
2022-09-26T06:21:34.673Z,7.38
2022-09-26T06:22:43.014Z,7.55
2022-09-26T06:23:47.597Z,6.95
2022-09-26T06:24:50.289Z,8.15
2022-09-26T06:25:54.988Z,7.75
2022-09-26T06:26:56.547Z,7.88
2022-09-26T06:28:00.595Z,7.85
2022-09-26T06:29:04.842Z,7.80
2022-09-26T06:30:11.111Z,7.95
2022-09-26T06:31:16.791Z,7.95
2022-09-26T06:32:21.513Z,7.47
2022-09-26T06:33:31.108Z,7.15
2022-09-26T06:34:37.810Z,6.70
2022-09-26T06:35:39.965Z,6.95
2022-09-26T06:36:41.693Z,7.75
2022-09-26T06:37:46.299Z,7.20
2022-09-26T06:38:49.648Z,6.95
2022-09-26T06:39:54.638Z,7.03
2022-09-26T06:41:01.824Z,7.57
2022-09-26T06:42:09.027Z,6.97
2022-09-26T06:43:10.876Z,7.00
2022-09-26T06:44:12.977Z,6.25
2022-09-26T06:45:17.837Z,7.40
2022-09-26T06:46:24.881Z,5.75
2022-09-26T06:47:29.025Z,6.03
2022-09-26T06:48:30.895Z,6.30
2022-09-26T06:49:34.080Z,5.70
2022-09-26T06:50:35.771Z,6.20
2022-09-26T06:51:40.257Z,5.85
2022-09-26T06:52:47.149Z,7.10
2022-09-26T06:53:54.025Z,6.47
2022-09-26T06:54:55.898Z,5.50
2022-09-26T06:56:08.186Z,5.82
2022-09-26T06:57:15.222Z,6.30
2022-09-26T06:58:22.972Z,7.43
2022-09-26T06:59:27.293Z,7.20
2022-09-26T07:00:35.565Z,6.35
2022-09-26T07:01:39.767Z,6.30
2022-09-26T07:02:55.008Z,6.20
2022-09-26T07:03:59.653Z,6.40
2022-09-26T07:05:02.691Z,6.78
2022-09-26T07:06:05.045Z,5.53
2022-09-26T07:07:06.691Z,5.97
2022-09-26T07:08:08.344Z,5.70
2022-09-26T07:09:13.060Z,4.20
2022-09-26T07:10:21.171Z,3.45
2022-09-26T07:12:49.674Z,2.67
2022-09-26T07:13:56.381Z,2.55
2022-09-26T07:14:59.722Z,2.37
2022-09-26T07:16:01.769Z,2.27
2022-09-26T07:17:03.930Z,2.27
2022-09-26T07:18:06.865Z,2.33
2022-09-26T07:19:11.708Z,2.63
2022-09-26T07:20:16.472Z,2.60
2022-09-26T07:21:18.114Z,2.57
2022-09-26T07:22:19.788Z,1.80
2022-09-26T07:23:24.548Z,2.20
2022-09-26T07:24:28.075Z,2.23
2022-09-26T07:25:33.443Z,2.03
2022-09-26T07:26:36.287Z,2.50
2022-09-26T07:27:41.578Z,2.10
2022-09-26T07:28:54.334Z,2.13
2022-09-26T07:29:59.312Z,2.17
2022-09-26T07:31:01.612Z,1.90
2022-09-26T07:32:03.523Z,2.00
2022-09-26T07:33:06.129Z,2.30
2022-09-26T07:34:08.892Z,1.73
2022-09-26T07:35:11.655Z,2.40
2022-09-26T07:36:13.607Z,2.03
2022-09-26T07:37:17.350Z,1.70
2022-09-26T07:38:25.118Z,2.20
2022-09-26T07:39:26.671Z,1.90
2022-09-26T07:40:28.825Z,1.87
2022-09-26T07:41:31.280Z,1.93
2022-09-26T07:42:34.234Z,2.07
2022-09-26T07:44:46.155Z,1.93
2022-09-26T07:46:50.273Z,1.83
2022-09-26T07:48:19.451Z,1.57
2022-09-26T07:49:48.775Z,2.00
2022-09-26T07:50:59.778Z,2.07
2022-09-26T07:52:01.961Z,2.30
2022-09-26T07:53:09.652Z,1.80
2022-09-26T07:54:13.398Z,2.90
2022-09-26T07:55:17.842Z,3.63
2022-09-26T07:56:29.065Z,3.50
2022-09-26T07:57:41.440Z,3.10
2022-09-26T07:58:46.486Z,2.73
2022-09-26T07:59:50.561Z,2.03
2022-09-26T08:00:52.347Z,1.70
2022-09-26T08:01:54.685Z,1.63
2022-09-26T08:03:01.542Z,1.90
2022-09-26T08:04:06.447Z,1.70
2022-09-26T08:05:10.849Z,1.60
2022-09-26T08:06:20.190Z,1.50
2022-09-26T08:07:22.878Z,2.37
2022-09-26T08:08:27.604Z,1.80
2022-09-26T08:09:30.667Z,1.67
2022-09-26T08:10:35.520Z,1.93
2022-09-26T08:11:48.690Z,1.80
2022-09-26T08:12:50.748Z,1.93
2022-09-26T08:13:56.703Z,1.60
2022-09-26T08:15:10.024Z,2.10
2022-09-26T08:16:27.458Z,1.67
2022-09-26T08:17:32.575Z,1.93
2022-09-26T08:18:36.497Z,1.87
2022-09-26T08:19:43.259Z,1.30
2022-09-26T08:20:55.914Z,1.70
2022-09-26T08:22:02.674Z,2.20
2022-09-26T08:23:11.549Z,1.90
2022-09-26T08:24:15.302Z,1.93
2022-09-26T08:25:29.429Z,1.77
2022-09-26T08:26:44.431Z,2.27
2022-09-26T08:27:53.662Z,1.80
2022-09-26T08:28:55.331Z,1.70
2022-09-26T08:29:59.406Z,1.40
2022-09-26T08:31:05.470Z,1.43
2022-09-26T08:32:08.160Z,1.90
2022-09-26T08:33:12.809Z,1.70
2022-09-26T08:34:14.871Z,1.60
2022-09-26T08:35:18.502Z,1.73
2022-09-26T08:36:21.053Z,1.73
2022-09-26T08:37:29.729Z,1.63
2022-09-26T08:38:31.366Z,1.80
2022-09-26T08:39:43.171Z,1.90
2022-09-26T08:41:35.042Z,1.93
2022-09-26T08:43:10.268Z,1.70
2022-09-26T08:44:36.906Z,2.03
2022-09-26T08:46:11.434Z,1.50
2022-09-26T08:47:49.521Z,1.70
2022-09-26T08:49:34.730Z,1.73
2022-09-26T08:50:51.290Z,1.37
2022-09-26T08:51:59.830Z,1.77
2022-09-26T08:53:07.505Z,1.60
2022-09-26T08:54:37.654Z,1.57
2022-09-26T08:55:50.719Z,2.03
2022-09-26T08:57:07.700Z,1.70
2022-09-26T08:58:47.234Z,1.83
2022-09-26T08:59:49.230Z,1.80
2022-09-26T09:00:59.212Z,1.50
2022-09-26T09:02:18.220Z,1.50
2022-09-26T09:03:35.608Z,1.50
2022-09-26T09:04:51.543Z,1.40
2022-09-26T09:06:18.482Z,1.67
2022-09-26T09:07:35.420Z,1.47
2022-09-26T09:09:01.452Z,1.43
2022-09-26T09:10:09.712Z,1.70
2022-09-26T09:11:35.581Z,1.27
2022-09-26T09:12:37.281Z,1.50
2022-09-26T09:14:06.130Z,1.60
2022-09-26T09:15:32.542Z,2.17
2022-09-26T09:17:03.519Z,1.90
2022-09-26T09:18:21.711Z,1.60
2022-09-26T09:19:44.154Z,1.23
2022-09-26T09:21:01.024Z,1.97
2022-09-26T09:22:44.934Z,1.87
2022-09-26T09:23:49.877Z,1.50
2022-09-26T09:25:03.313Z,1.70
2022-09-26T09:28:00.105Z,2.10
2022-09-26T09:29:49.405Z,1.50
2022-09-26T09:30:54.020Z,1.43
2022-09-26T09:32:00.470Z,1.70
2022-09-26T09:33:37.836Z,1.33
2022-09-26T09:34:48.005Z,1.63
2022-09-26T09:35:57.529Z,1.83
2022-09-26T09:37:34.221Z,1.47
2022-09-26T09:38:45.791Z,1.87
2022-09-26T09:39:52.477Z,1.70
2022-09-26T09:41:04.508Z,1.40
2022-09-26T09:42:49.945Z,1.50
2022-09-26T09:43:55.775Z,1.53
2022-09-26T09:45:20.611Z,2.20
2022-09-26T09:46:40.484Z,2.63
2022-09-26T09:47:42.628Z,2.83
2022-09-26T09:48:48.502Z,3.03
2022-09-26T09:49:51.753Z,2.00
2022-09-26T09:51:35.555Z,2.10
2022-09-26T09:52:54.030Z,1.60
2022-09-26T09:54:22.452Z,1.80
2022-09-26T09:55:47.839Z,1.60
2022-09-26T09:57:23.588Z,2.03
2022-09-26T09:58:53.191Z,1.60
2022-09-26T09:59:58.553Z,1.17
2022-09-26T10:01:33.273Z,1.53
2022-09-26T10:03:11.672Z,1.67
2022-09-26T10:04:30.504Z,1.83
2022-09-26T10:05:47.198Z,2.03
2022-09-26T10:06:51.699Z,1.60
2022-09-26T10:07:58.380Z,1.47
2022-09-26T10:09:38.505Z,1.70
2022-09-26T10:10:49.160Z,1.43
2022-09-26T10:11:57.030Z,1.40
2022-09-26T10:12:58.682Z,1.40
2022-09-26T10:14:13.274Z,1.70
2022-09-26T10:15:27.355Z,1.50
2022-09-26T10:16:32.181Z,1.40
2022-09-26T10:17:33.960Z,1.53
2022-09-26T10:19:00.815Z,1.60
2022-09-26T10:20:04.935Z,1.90
2022-09-26T10:21:17.909Z,1.43
2022-09-26T10:22:29.962Z,2.00
2022-09-26T10:23:37.533Z,1.60
2022-09-26T10:24:46.756Z,1.60
2022-09-26T10:25:51.915Z,2.33
2022-09-26T10:26:56.956Z,1.80
2022-09-26T10:28:02.886Z,1.97
2022-09-26T10:29:21.320Z,1.30
2022-09-26T10:30:26.737Z,1.80
2022-09-26T10:31:43.793Z,2.13
2022-09-26T10:32:55.559Z,1.60
2022-09-26T10:34:01.318Z,1.90
2022-09-26T10:35:29.872Z,1.90
2022-09-26T10:36:37.951Z,1.67
2022-09-26T10:37:53.453Z,1.80
2022-09-26T10:39:38.338Z,2.23
2022-09-26T10:41:00.960Z,1.50
2022-09-26T10:42:05.123Z,2.30
2022-09-26T10:43:35.157Z,1.93
2022-09-26T10:44:41.355Z,1.80
2022-09-26T10:45:44.679Z,2.30
2022-09-26T10:46:50.277Z,1.57
2022-09-26T10:47:59.502Z,1.93
2022-09-26T10:49:03.448Z,2.07
2022-09-26T10:50:17.529Z,1.63
2022-09-26T10:51:41.267Z,2.20
2022-09-26T10:52:53.604Z,1.77
2022-09-26T10:54:32.907Z,1.67
2022-09-26T10:56:05.617Z,1.30
2022-09-26T10:57:09.665Z,2.23
2022-09-26T10:58:24.463Z,1.47
2022-09-26T10:59:31.813Z,1.80
2022-09-26T11:00:33.408Z,1.53
2022-09-26T11:01:43.374Z,1.57
2022-09-26T11:02:57.277Z,1.40
2022-09-26T11:04:13.162Z,2.27
2022-09-26T11:05:35.346Z,1.30
2022-09-26T11:06:43.979Z,1.47
2022-09-26T11:07:49.397Z,1.43
2022-09-26T11:09:04.826Z,1.77
2022-09-26T11:10:11.473Z,1.53
2022-09-26T11:11:16.898Z,1.37
2022-09-26T11:12:23.997Z,1.53
2022-09-26T11:13:38.986Z,1.70
2022-09-26T11:14:47.360Z,1.23
2022-09-26T11:16:14.022Z,1.27
2022-09-26T11:17:19.344Z,1.10
2022-09-26T11:19:02.658Z,1.70
2022-09-26T11:20:16.959Z,1.10
2022-09-26T11:21:30.594Z,0.97
2022-09-26T11:22:45.316Z,1.03
2022-09-26T11:24:03.009Z,1.50
2022-09-26T11:25:25.149Z,1.43
2022-09-26T11:26:43.687Z,1.20
2022-09-26T11:27:54.646Z,1.70
2022-09-26T11:29:17.999Z,1.10
2022-09-26T11:30:21.719Z,1.30
2022-09-26T11:31:29.972Z,1.07
2022-09-26T11:32:45.118Z,1.47
2022-09-26T11:33:52.196Z,1.40
2022-09-26T11:34:54.504Z,1.37
2022-09-26T11:36:27.419Z,1.40
2022-09-26T11:37:59.215Z,1.40
2022-09-26T11:39:11.800Z,1.40
2022-09-26T11:40:18.790Z,1.53
2022-09-26T11:41:38.532Z,1.77
2022-09-26T11:43:02.916Z,1.03
2022-09-26T11:44:17.398Z,1.60
2022-09-26T11:45:47.488Z,1.23
2022-09-26T11:47:37.269Z,1.20
2022-09-26T11:48:58.074Z,1.60
2022-09-26T11:50:05.365Z,1.50
2022-09-26T11:51:45.743Z,1.70
2022-09-26T11:53:47.629Z,1.73
2022-09-26T11:55:01.051Z,1.50
2022-09-26T11:56:52.608Z,1.73
2022-09-26T11:58:13.791Z,1.30
2022-09-26T11:59:47.580Z,1.00
2022-09-26T12:01:16.582Z,1.50
2022-09-26T12:02:43.107Z,1.70
2022-09-26T12:04:12.175Z,1.63
2022-09-26T12:05:34.002Z,1.43
2022-09-26T12:06:47.715Z,1.70
2022-09-26T12:08:17.388Z,1.47
2022-09-26T12:09:45.369Z,1.50
2022-09-26T12:11:00.453Z,1.80
2022-09-26T12:12:13.477Z,1.20
2022-09-26T12:13:49.332Z,1.27
2022-09-26T12:15:11.130Z,1.53
2022-09-26T12:16:22.118Z,1.37
2022-09-26T12:17:44.008Z,1.40
2022-09-26T12:19:16.454Z,1.23
2022-09-26T12:20:45.444Z,1.00
2022-09-26T12:22:15.701Z,1.40
2022-09-26T12:23:30.183Z,1.03
2022-09-26T12:25:00.764Z,1.10
2022-09-26T12:26:34.785Z,1.00
2022-09-26T12:28:01.072Z,1.03
2022-09-26T12:29:38.532Z,1.60
2022-09-26T12:30:52.679Z,0.70
2022-09-26T12:32:15.993Z,1.13
2022-09-26T12:33:46.877Z,1.10
2022-09-26T12:35:07.926Z,0.90
2022-09-26T12:36:09.663Z,1.60
2022-09-26T12:37:57.669Z,1.00
2022-09-26T12:39:39.853Z,1.23
2022-09-26T12:41:02.641Z,1.17
2022-09-26T12:42:48.592Z,1.50
2022-09-26T12:44:25.513Z,1.53
2022-09-26T12:45:49.568Z,1.13
2022-09-26T12:47:18.797Z,1.53
2022-09-26T12:48:41.136Z,1.60
2022-09-26T12:50:02.430Z,1.50
2022-09-26T12:51:44.175Z,1.90
2022-09-26T12:52:54.805Z,1.40
2022-09-26T12:54:22.267Z,1.70
2022-09-26T12:55:54.411Z,1.70
2022-09-26T12:57:14.401Z,1.57
2022-09-26T12:58:31.836Z,1.60
2022-09-26T12:59:49.754Z,2.17
2022-09-26T13:01:12.247Z,1.40
2022-09-26T13:02:32.457Z,2.37
2022-09-26T13:04:03.970Z,2.00
2022-09-26T13:05:43.260Z,1.53
2022-09-26T13:07:25.107Z,1.53
2022-09-26T13:09:26.000Z,1.10
2022-09-26T13:10:48.149Z,2.10
2022-09-26T13:12:04.168Z,2.10
2022-09-26T13:13:31.822Z,1.60
2022-09-26T13:15:26.147Z,1.60
2022-09-26T13:17:06.292Z,1.67
2022-09-26T13:18:15.923Z,2.07
2022-09-26T13:19:36.691Z,1.60
2022-09-26T13:20:44.443Z,1.87
2022-09-26T13:21:56.761Z,1.70
2022-09-26T13:23:02.285Z,1.73
2022-09-26T13:24:15.309Z,1.70
2022-09-26T13:25:22.407Z,2.20
2022-09-26T13:26:29.533Z,1.33
2022-09-26T13:27:38.995Z,1.73
2022-09-26T13:29:06.482Z,2.00
2022-09-26T13:30:26.617Z,1.83
2022-09-26T13:31:38.244Z,1.50
2022-09-26T13:32:49.206Z,1.57
2022-09-26T13:34:05.154Z,1.97
2022-09-26T13:35:29.981Z,1.90
2022-09-26T13:36:34.079Z,1.40
2022-09-26T13:38:11.680Z,1.60
2022-09-26T13:40:02.701Z,1.47
2022-09-26T13:41:13.457Z,1.20
2022-09-26T13:42:26.297Z,1.50
2022-09-26T13:43:34.299Z,1.30
2022-09-26T13:45:08.936Z,1.30
2022-09-26T13:46:22.217Z,1.27
2022-09-26T13:47:49.123Z,1.30
2022-09-26T13:49:04.865Z,1.33
2022-09-26T13:50:55.560Z,1.50
2022-09-26T13:52:27.678Z,1.17
2022-09-26T13:53:40.503Z,1.33
2022-09-26T13:55:22.715Z,1.53
2022-09-26T13:56:34.768Z,0.90
2022-09-26T13:58:07.474Z,1.33
2022-09-26T13:59:11.772Z,1.23
2022-09-26T14:00:31.758Z,0.93
2022-09-26T14:01:33.861Z,2.03
2022-09-26T14:02:35.528Z,1.47
2022-09-26T14:03:39.107Z,1.70
2022-09-26T14:04:40.798Z,2.20
2022-09-26T14:05:42.341Z,1.20
2022-09-26T14:07:30.064Z,1.97
2022-09-26T14:08:53.392Z,1.77
2022-09-26T14:10:01.690Z,1.40
2022-09-26T14:11:32.070Z,1.00
2022-09-26T14:12:33.668Z,1.50
2022-09-26T14:13:38.179Z,2.10
2022-09-26T14:14:52.141Z,1.47
2022-09-26T14:16:00.639Z,3.40
2022-09-26T14:17:23.194Z,1.30
2022-09-26T14:18:45.627Z,1.00
2022-09-26T14:19:53.886Z,0.80
2022-09-26T14:20:55.758Z,2.27
2022-09-26T14:22:19.248Z,1.30
2022-09-26T14:23:45.309Z,1.10
2022-09-26T14:24:50.852Z,1.03
2022-09-26T14:25:56.651Z,1.00
2022-09-26T14:27:04.243Z,0.80
2022-09-26T14:28:31.850Z,0.90
2022-09-26T14:29:39.951Z,0.83
2022-09-26T14:31:13.639Z,0.80
2022-09-26T14:32:39.409Z,1.00
2022-09-26T14:33:44.201Z,0.90
2022-09-26T14:34:54.301Z,0.90
2022-09-26T14:36:35.303Z,1.00
2022-09-26T14:37:42.763Z,1.20
2022-09-26T14:38:53.515Z,0.80
2022-09-26T14:40:06.848Z,1.30
2022-09-26T14:41:23.084Z,1.20
2022-09-26T14:42:42.010Z,0.80
2022-09-26T14:43:50.922Z,0.93
2022-09-26T14:45:14.985Z,0.73
2022-09-26T14:46:25.660Z,0.90
2022-09-26T14:47:42.712Z,0.93
2022-09-26T14:48:47.016Z,1.00
2022-09-26T14:50:05.003Z,0.80
2022-09-26T14:51:23.930Z,1.20
2022-09-26T14:52:30.231Z,1.07
2022-09-26T14:53:50.211Z,1.00
2022-09-26T14:55:03.333Z,1.53
2022-09-26T14:56:15.905Z,1.20
2022-09-26T14:57:46.941Z,1.57
2022-09-26T14:58:53.345Z,1.70
2022-09-26T14:59:56.120Z,1.47
2022-09-26T15:01:04.573Z,1.67
2022-09-26T15:02:18.136Z,1.70
2022-09-26T15:03:23.402Z,1.47
2022-09-26T15:04:29.972Z,1.00
2022-09-26T15:05:36.174Z,1.13
2022-09-26T15:06:44.644Z,1.57
2022-09-26T15:07:52.613Z,1.40
2022-09-26T15:08:56.105Z,1.07
2022-09-26T15:10:03.018Z,1.60
2022-09-26T15:11:09.078Z,1.00
2022-09-26T15:12:34.008Z,0.70
2022-09-26T15:13:47.773Z,1.50
2022-09-26T15:15:14.889Z,1.57
2022-09-26T15:16:42.035Z,1.70
2022-09-26T15:17:54.004Z,1.20
2022-09-26T15:19:12.332Z,1.90
2022-09-26T15:20:19.710Z,1.50
2022-09-26T15:22:02.951Z,1.40
2022-09-26T15:23:51.682Z,1.20
2022-09-26T15:25:24.806Z,1.33
2022-09-26T15:26:39.552Z,1.57
2022-09-26T15:27:52.261Z,1.30
2022-09-26T15:29:00.253Z,1.30
2022-09-26T15:30:15.056Z,0.90
2022-09-26T15:31:55.558Z,1.43
2022-09-26T15:32:58.293Z,1.70
2022-09-26T15:34:09.508Z,1.00
2022-09-26T15:35:13.363Z,0.90
2022-09-26T15:36:17.104Z,0.90
2022-09-26T15:37:38.697Z,1.50
2022-09-26T15:38:47.044Z,1.10
2022-09-26T15:39:49.869Z,1.90
2022-09-26T15:41:02.817Z,1.00
2022-09-26T15:42:29.187Z,0.80
2022-09-26T15:43:34.972Z,0.97
2022-09-26T15:44:36.504Z,1.60
2022-09-26T15:45:47.108Z,1.30
2022-09-26T15:46:58.412Z,1.20
2022-09-26T15:48:01.409Z,1.33
2022-09-26T15:49:14.411Z,1.23
2022-09-26T15:50:29.679Z,0.87
2022-09-26T15:51:39.100Z,1.30
2022-09-26T15:52:56.004Z,1.00
2022-09-26T15:54:01.562Z,1.20
2022-09-26T15:55:05.831Z,1.20
2022-09-26T15:56:16.384Z,0.80